sensor_id;sensor_type;location;lat;lon;timestamp;temperature;humidity
8408;DHT22;4241;48.452;9.216;2023-03-01T00:07:16;-1.20;99.90
8408;DHT22;4241;48.452;9.216;2023-03-01T00:09:43;-1.30;99.90
8408;DHT22;4241;48.452;9.216;2023-03-01T00:14:39;-1.30;99.90
8408;DHT22;4241;48.452;9.216;2023-03-01T00:17:06;-1.40;99.90
8408;DHT22;4241;48.452;9.216;2023-03-01T00:22:00;-1.20;99.90
8408;DHT22;4241;48.452;9.216;2023-03-01T00:26:54;-1.20;99.90
8408;DHT22;4241;48.452;9.216;2023-03-01T00:31:50;-1.20;99.90
8408;DHT22;4241;48.452;9.216;2023-03-01T00:39:13;-1.40;99.90
8408;DHT22;4241;48.452;9.216;2023-03-01T00:41:41;-1.40;99.90
8408;DHT22;4241;48.452;9.216;2023-03-01T00:44:08;-1.40;99.90
8408;DHT22;4241;48.452;9.216;2023-03-01T00:49:03;-0.60;99.90
8408;DHT22;4241;48.452;9.216;2023-03-01T00:53:59;-1.50;99.90
8408;DHT22;4241;48.452;9.216;2023-03-01T00:56:26;-1.60;99.90
8408;DHT22;4241;48.452;9.216;2023-03-01T01:01:22;-1.50;99.90
8408;DHT22;4241;48.452;9.216;2023-03-01T01:03:51;-1.70;99.90
8408;DHT22;4241;48.452;9.216;2023-03-01T01:06:22;-2.30;99.90
8408;DHT22;4241;48.452;9.216;2023-03-01T01:11:18;-1.70;99.90
8408;DHT22;4241;48.452;9.216;2023-03-01T01:13:46;-1.70;99.90
8408;DHT22;4241;48.452;9.216;2023-03-01T01:16:13;-1.70;99.90
8408;DHT22;4241;48.452;9.216;2023-03-01T01:21:09;-1.50;99.90
8408;DHT22;4241;48.452;9.216;2023-03-01T01:23:38;-1.60;99.90
8408;DHT22;4241;48.452;9.216;2023-03-01T01:26:06;-1.60;99.90
8408;DHT22;4241;48.452;9.216;2023-03-01T01:35:54;-1.70;99.90
8408;DHT22;4241;48.452;9.216;2023-03-01T01:40:50;-1.50;99.90
8408;DHT22;4241;48.452;9.216;2023-03-01T01:43:21;-1.50;99.90
8408;DHT22;4241;48.452;9.216;2023-03-01T01:45:49;-1.20;99.90
8408;DHT22;4241;48.452;9.216;2023-03-01T01:48:19;-1.50;99.90
8408;DHT22;4241;48.452;9.216;2023-03-01T01:50:53;-1.30;99.90
8408;DHT22;4241;48.452;9.216;2023-03-01T01:53:22;-1.40;99.90
8408;DHT22;4241;48.452;9.216;2023-03-01T01:55:53;-1.30;99.90
8408;DHT22;4241;48.452;9.216;2023-03-01T01:58:24;-1.20;99.90
8408;DHT22;4241;48.452;9.216;2023-03-01T02:00:53;-1.20;99.90
8408;DHT22;4241;48.452;9.216;2023-03-01T02:03:23;-1.10;99.90
8408;DHT22;4241;48.452;9.216;2023-03-01T02:05:58;-1.10;99.90
8408;DHT22;4241;48.452;9.216;2023-03-01T02:08:29;-1.10;99.90
8408;DHT22;4241;48.452;9.216;2023-03-01T02:10:58;-1.10;99.90
8408;DHT22;4241;48.452;9.216;2023-03-01T02:15:53;-1.00;99.90
8408;DHT22;4241;48.452;9.216;2023-03-01T02:18:21;-1.00;99.90
8408;DHT22;4241;48.452;9.216;2023-03-01T02:20:57;-1.10;99.90
8408;DHT22;4241;48.452;9.216;2023-03-01T02:23:27;-1.00;99.90
8408;DHT22;4241;48.452;9.216;2023-03-01T02:25:58;-1.00;99.90
8408;DHT22;4241;48.452;9.216;2023-03-01T02:28:31;-1.00;99.90
8408;DHT22;4241;48.452;9.216;2023-03-01T02:33:53;-0.90;99.90
8408;DHT22;4241;48.452;9.216;2023-03-01T02:36:21;-0.90;99.90
8408;DHT22;4241;48.452;9.216;2023-03-01T02:38:52;-1.00;99.90
8408;DHT22;4241;48.452;9.216;2023-03-01T02:41:29;-0.90;99.90
8408;DHT22;4241;48.452;9.216;2023-03-01T02:43:58;-0.90;99.90
8408;DHT22;4241;48.452;9.216;2023-03-01T02:46:26;-0.80;99.90
8408;DHT22;4241;48.452;9.216;2023-03-01T02:48:54;-0.70;99.90
8408;DHT22;4241;48.452;9.216;2023-03-01T02:51:31;-0.80;99.90
8408;DHT22;4241;48.452;9.216;2023-03-01T02:54:08;-1.30;99.90
8408;DHT22;4241;48.452;9.216;2023-03-01T02:56:36;-0.70;99.90
8408;DHT22;4241;48.452;9.216;2023-03-01T02:59:05;-0.70;99.90
8408;DHT22;4241;48.452;9.216;2023-03-01T03:01:32;-0.90;99.90
8408;DHT22;4241;48.452;9.216;2023-03-01T03:04:04;-0.60;99.90
8408;DHT22;4241;48.452;9.216;2023-03-01T03:06:30;-0.50;99.90
8408;DHT22;4241;48.452;9.216;2023-03-01T03:08:57;-0.60;99.90
8408;DHT22;4241;48.452;9.216;2023-03-01T03:11:24;-0.60;99.90
8408;DHT22;4241;48.452;9.216;2023-03-01T03:16:20;-0.60;99.90
8408;DHT22;4241;48.452;9.216;2023-03-01T03:21:14;-0.50;99.90
8408;DHT22;4241;48.452;9.216;2023-03-01T03:23:41;-0.50;99.90
8408;DHT22;4241;48.452;9.216;2023-03-01T03:31:06;-0.60;99.90
8408;DHT22;4241;48.452;9.216;2023-03-01T03:33:35;-0.40;99.90
8408;DHT22;4241;48.452;9.216;2023-03-01T03:36:02;-0.60;99.90
8408;DHT22;4241;48.452;9.216;2023-03-01T03:41:00;-0.60;99.90
8408;DHT22;4241;48.452;9.216;2023-03-01T03:43:29;-0.80;99.90
8408;DHT22;4241;48.452;9.216;2023-03-01T03:48:25;-0.70;99.90
8408;DHT22;4241;48.452;9.216;2023-03-01T03:50:55;-0.70;99.90
8408;DHT22;4241;48.452;9.216;2023-03-01T03:53:24;-0.70;99.90
8408;DHT22;4241;48.452;9.216;2023-03-01T03:55:52;-0.70;99.90
8408;DHT22;4241;48.452;9.216;2023-03-01T03:58:20;-0.70;99.90
8408;DHT22;4241;48.452;9.216;2023-03-01T04:00:49;-0.70;99.90
8408;DHT22;4241;48.452;9.216;2023-03-01T04:03:17;-0.40;99.90
8408;DHT22;4241;48.452;9.216;2023-03-01T04:05:46;-0.70;99.90
8408;DHT22;4241;48.452;9.216;2023-03-01T04:08:14;-1.00;99.90
8408;DHT22;4241;48.452;9.216;2023-03-01T04:10:43;-0.70;99.90
8408;DHT22;4241;48.452;9.216;2023-03-01T04:13:12;-0.70;99.90
8408;DHT22;4241;48.452;9.216;2023-03-01T04:15:40;-0.80;99.90
8408;DHT22;4241;48.452;9.216;2023-03-01T04:18:09;-0.70;99.90
8408;DHT22;4241;48.452;9.216;2023-03-01T04:23:07;-0.70;99.90
8408;DHT22;4241;48.452;9.216;2023-03-01T04:25:42;-0.70;99.90
8408;DHT22;4241;48.452;9.216;2023-03-01T04:28:09;-0.70;99.90
8408;DHT22;4241;48.452;9.216;2023-03-01T04:30:36;-0.60;99.90
8408;DHT22;4241;48.452;9.216;2023-03-01T04:33:04;-0.70;99.90
8408;DHT22;4241;48.452;9.216;2023-03-01T04:35:31;-0.60;99.90
8408;DHT22;4241;48.452;9.216;2023-03-01T04:37:58;-0.60;99.90
8408;DHT22;4241;48.452;9.216;2023-03-01T04:40:25;-0.60;99.90
8408;DHT22;4241;48.452;9.216;2023-03-01T04:42:53;-0.50;99.90
8408;DHT22;4241;48.452;9.216;2023-03-01T04:45:20;-0.60;99.90
8408;DHT22;4241;48.452;9.216;2023-03-01T04:47:47;-0.50;99.90
8408;DHT22;4241;48.452;9.216;2023-03-01T04:50:16;-0.50;99.90
8408;DHT22;4241;48.452;9.216;2023-03-01T04:52:46;0.30;99.90
8408;DHT22;4241;48.452;9.216;2023-03-01T04:55:13;-0.50;99.90
8408;DHT22;4241;48.452;9.216;2023-03-01T04:57:40;-0.40;99.90
8408;DHT22;4241;48.452;9.216;2023-03-01T05:00:12;-0.50;99.90
8408;DHT22;4241;48.452;9.216;2023-03-01T05:02:48;-0.50;99.90
8408;DHT22;4241;48.452;9.216;2023-03-01T05:05:19;-1.40;99.90
8408;DHT22;4241;48.452;9.216;2023-03-01T05:07:46;-0.20;99.90
8408;DHT22;4241;48.452;9.216;2023-03-01T05:10:13;-0.50;99.90
8408;DHT22;4241;48.452;9.216;2023-03-01T05:15:09;-0.60;99.90
8408;DHT22;4241;48.452;9.216;2023-03-01T05:20:04;-0.60;99.90
8408;DHT22;4241;48.452;9.216;2023-03-01T05:22:34;-0.60;99.90
8408;DHT22;4241;48.452;9.216;2023-03-01T05:25:01;-0.70;99.90
8408;DHT22;4241;48.452;9.216;2023-03-01T05:27:28;-0.70;99.90
8408;DHT22;4241;48.452;9.216;2023-03-01T05:29:55;-0.70;99.90
8408;DHT22;4241;48.452;9.216;2023-03-01T05:32:23;-0.90;99.90
8408;DHT22;4241;48.452;9.216;2023-03-01T05:34:50;-1.00;99.90
8408;DHT22;4241;48.452;9.216;2023-03-01T05:39:45;-0.80;99.90
8408;DHT22;4241;48.452;9.216;2023-03-01T05:42:11;-1.40;99.90
8408;DHT22;4241;48.452;9.216;2023-03-01T05:44:38;-0.70;99.90
8408;DHT22;4241;48.452;9.216;2023-03-01T05:47:06;-0.60;99.90
8408;DHT22;4241;48.452;9.216;2023-03-01T05:49:34;-0.70;99.90
8408;DHT22;4241;48.452;9.216;2023-03-01T05:52:00;-0.70;99.90
8408;DHT22;4241;48.452;9.216;2023-03-01T05:56:54;-0.60;99.90
8408;DHT22;4241;48.452;9.216;2023-03-01T05:59:21;-0.60;99.90
8408;DHT22;4241;48.452;9.216;2023-03-01T06:01:48;-0.60;99.90
8408;DHT22;4241;48.452;9.216;2023-03-01T06:04:15;-0.60;99.90
8408;DHT22;4241;48.452;9.216;2023-03-01T06:06:43;-0.60;99.90
8408;DHT22;4241;48.452;9.216;2023-03-01T06:14:06;-0.60;99.90
8408;DHT22;4241;48.452;9.216;2023-03-01T06:16:33;-0.60;99.90
8408;DHT22;4241;48.452;9.216;2023-03-01T06:19:00;-0.70;99.90
8408;DHT22;4241;48.452;9.216;2023-03-01T06:23:55;-0.60;99.90
8408;DHT22;4241;48.452;9.216;2023-03-01T06:31:16;-0.50;99.90
8408;DHT22;4241;48.452;9.216;2023-03-01T06:38:38;-0.40;99.90
8408;DHT22;4241;48.452;9.216;2023-03-01T06:41:07;-0.40;99.90
8408;DHT22;4241;48.452;9.216;2023-03-01T06:43:34;-0.50;99.90
8408;DHT22;4241;48.452;9.216;2023-03-01T06:46:04;-0.50;99.90
8408;DHT22;4241;48.452;9.216;2023-03-01T06:48:32;-0.40;99.90
8408;DHT22;4241;48.452;9.216;2023-03-01T06:50:59;-0.50;99.90
8408;DHT22;4241;48.452;9.216;2023-03-01T06:53:27;-0.40;99.90
8408;DHT22;4241;48.452;9.216;2023-03-01T06:55:54;-0.40;99.90
8408;DHT22;4241;48.452;9.216;2023-03-01T06:58:23;1.50;99.90
8408;DHT22;4241;48.452;9.216;2023-03-01T07:00:49;-0.30;99.90
8408;DHT22;4241;48.452;9.216;2023-03-01T07:03:16;-0.30;99.90
8408;DHT22;4241;48.452;9.216;2023-03-01T07:05:43;-0.40;99.90
8408;DHT22;4241;48.452;9.216;2023-03-01T07:08:10;-0.30;99.90
8408;DHT22;4241;48.452;9.216;2023-03-01T07:15:34;-0.20;99.90
8408;DHT22;4241;48.452;9.216;2023-03-01T07:18:02;-0.20;99.90
8408;DHT22;4241;48.452;9.216;2023-03-01T07:22:56;-0.20;99.90
8408;DHT22;4241;48.452;9.216;2023-03-01T07:25:24;-0.20;99.90
8408;DHT22;4241;48.452;9.216;2023-03-01T07:27:51;-0.10;99.90
8408;DHT22;4241;48.452;9.216;2023-03-01T07:30:19;-0.20;99.90
8408;DHT22;4241;48.452;9.216;2023-03-01T07:32:47;-0.10;99.90
8408;DHT22;4241;48.452;9.216;2023-03-01T07:35:14;-0.10;99.90
8408;DHT22;4241;48.452;9.216;2023-03-01T07:40:09;0.00;99.90
8408;DHT22;4241;48.452;9.216;2023-03-01T07:42:36;0.10;99.90
8408;DHT22;4241;48.452;9.216;2023-03-01T07:45:04;0.00;99.90
8408;DHT22;4241;48.452;9.216;2023-03-01T07:50:00;0.10;99.90
8408;DHT22;4241;48.452;9.216;2023-03-01T07:59:49;0.40;99.90
8408;DHT22;4241;48.452;9.216;2023-03-01T08:04:43;0.40;99.90
8408;DHT22;4241;48.452;9.216;2023-03-01T08:07:11;0.50;99.90
8408;DHT22;4241;48.452;9.216;2023-03-01T08:09:38;0.40;99.90
8408;DHT22;4241;48.452;9.216;2023-03-01T08:12:05;0.60;99.90
8408;DHT22;4241;48.452;9.216;2023-03-01T08:14:32;0.60;99.90
8408;DHT22;4241;48.452;9.216;2023-03-01T08:19:28;0.60;99.90
8408;DHT22;4241;48.452;9.216;2023-03-01T08:21:55;0.70;99.90
8408;DHT22;4241;48.452;9.216;2023-03-01T08:24:25;0.70;99.90
8408;DHT22;4241;48.452;9.216;2023-03-01T08:26:52;0.80;99.90
8408;DHT22;4241;48.452;9.216;2023-03-01T08:29:19;0.80;99.90
8408;DHT22;4241;48.452;9.216;2023-03-01T08:31:45;0.90;99.90
8408;DHT22;4241;48.452;9.216;2023-03-01T08:34:14;1.00;99.90
8408;DHT22;4241;48.452;9.216;2023-03-01T08:36:43;1.10;99.90
8408;DHT22;4241;48.452;9.216;2023-03-01T08:39:11;1.20;99.90
8408;DHT22;4241;48.452;9.216;2023-03-01T08:41:40;1.30;99.90
8408;DHT22;4241;48.452;9.216;2023-03-01T08:44:07;1.30;99.90
8408;DHT22;4241;48.452;9.216;2023-03-01T08:46:35;1.40;99.90
8408;DHT22;4241;48.452;9.216;2023-03-01T08:49:03;1.10;99.90
8408;DHT22;4241;48.452;9.216;2023-03-01T08:51:31;1.20;99.90
8408;DHT22;4241;48.452;9.216;2023-03-01T08:54:02;1.20;99.90
8408;DHT22;4241;48.452;9.216;2023-03-01T08:56:28;1.10;99.90
8408;DHT22;4241;48.452;9.216;2023-03-01T08:58:57;1.30;99.90
8408;DHT22;4241;48.452;9.216;2023-03-01T09:01:24;1.20;99.90
8408;DHT22;4241;48.452;9.216;2023-03-01T09:03:50;1.40;99.90
8408;DHT22;4241;48.452;9.216;2023-03-01T09:08:46;1.50;99.90
8408;DHT22;4241;48.452;9.216;2023-03-01T09:11:15;1.60;99.90
8408;DHT22;4241;48.452;9.216;2023-03-01T09:13:43;1.80;99.90
8408;DHT22;4241;48.452;9.216;2023-03-01T09:16:12;2.00;99.90
8408;DHT22;4241;48.452;9.216;2023-03-01T09:18:39;2.00;99.90
8408;DHT22;4241;48.452;9.216;2023-03-01T09:21:08;2.20;99.90
8408;DHT22;4241;48.452;9.216;2023-03-01T09:23:36;2.20;99.90
8408;DHT22;4241;48.452;9.216;2023-03-01T09:26:04;2.30;99.90
8408;DHT22;4241;48.452;9.216;2023-03-01T09:28:31;2.40;99.90
8408;DHT22;4241;48.452;9.216;2023-03-01T09:30:59;2.50;99.90
8408;DHT22;4241;48.452;9.216;2023-03-01T09:33:28;2.60;99.90
8408;DHT22;4241;48.452;9.216;2023-03-01T09:35:58;2.60;99.90
8408;DHT22;4241;48.452;9.216;2023-03-01T09:43:25;2.90;99.90
8408;DHT22;4241;48.452;9.216;2023-03-01T09:45:59;3.00;99.90
8408;DHT22;4241;48.452;9.216;2023-03-01T09:48:28;3.10;99.90
8408;DHT22;4241;48.452;9.216;2023-03-01T09:51:02;3.10;99.90
8408;DHT22;4241;48.452;9.216;2023-03-01T09:53:32;3.20;99.90
8408;DHT22;4241;48.452;9.216;2023-03-01T09:56:04;3.40;99.90
8408;DHT22;4241;48.452;9.216;2023-03-01T09:58:39;3.40;99.90
8408;DHT22;4241;48.452;9.216;2023-03-01T10:01:30;3.60;99.90
8408;DHT22;4241;48.452;9.216;2023-03-01T10:04:23;3.70;99.90
8408;DHT22;4241;48.452;9.216;2023-03-01T10:07:01;3.80;99.90
8408;DHT22;4241;48.452;9.216;2023-03-01T10:09:34;4.00;99.90
8408;DHT22;4241;48.452;9.216;2023-03-01T10:12:02;4.20;99.90
8408;DHT22;4241;48.452;9.216;2023-03-01T10:14:35;4.50;99.90
8408;DHT22;4241;48.452;9.216;2023-03-01T10:17:06;4.80;99.90
8408;DHT22;4241;48.452;9.216;2023-03-01T10:19:40;5.10;99.90
8408;DHT22;4241;48.452;9.216;2023-03-01T10:22:13;5.30;99.90
8408;DHT22;4241;48.452;9.216;2023-03-01T10:24:41;5.60;99.90
8408;DHT22;4241;48.452;9.216;2023-03-01T10:27:15;5.70;99.90
8408;DHT22;4241;48.452;9.216;2023-03-01T10:29:49;5.90;99.90
8408;DHT22;4241;48.452;9.216;2023-03-01T10:32:18;6.00;99.90
8408;DHT22;4241;48.452;9.216;2023-03-01T10:34:48;6.30;99.90
8408;DHT22;4241;48.452;9.216;2023-03-01T10:37:16;6.20;99.10
8408;DHT22;4241;48.452;9.216;2023-03-01T10:39:56;6.30;99.90
8408;DHT22;4241;48.452;9.216;2023-03-01T10:42:27;5.80;99.90
8408;DHT22;4241;48.452;9.216;2023-03-01T10:44:54;6.50;99.70
8408;DHT22;4241;48.452;9.216;2023-03-01T10:47:23;7.00;98.50
8408;DHT22;4241;48.452;9.216;2023-03-01T10:49:56;7.00;97.50
8408;DHT22;4241;48.452;9.216;2023-03-01T10:52:26;7.00;96.30
8408;DHT22;4241;48.452;9.216;2023-03-01T10:54:56;7.10;99.90
8408;DHT22;4241;48.452;9.216;2023-03-01T10:57:33;7.20;99.00
8408;DHT22;4241;48.452;9.216;2023-03-01T11:00:19;7.50;98.70
8408;DHT22;4241;48.452;9.216;2023-03-01T11:02:49;7.50;96.60
8408;DHT22;4241;48.452;9.216;2023-03-01T11:05:20;7.50;97.70
8408;DHT22;4241;48.452;9.216;2023-03-01T11:07:50;7.80;96.00
8408;DHT22;4241;48.452;9.216;2023-03-01T11:10:19;7.70;92.40
8408;DHT22;4241;48.452;9.216;2023-03-01T11:15:23;7.60;96.20
8408;DHT22;4241;48.452;9.216;2023-03-01T11:20:26;7.90;92.60
8408;DHT22;4241;48.452;9.216;2023-03-01T11:22:54;8.00;89.90
8408;DHT22;4241;48.452;9.216;2023-03-01T11:25:25;7.70;92.40
8408;DHT22;4241;48.452;9.216;2023-03-01T11:27:53;7.90;90.20
8408;DHT22;4241;48.452;9.216;2023-03-01T11:30:24;7.60;93.60
8408;DHT22;4241;48.452;9.216;2023-03-01T11:33:01;7.80;91.70
8408;DHT22;4241;48.452;9.216;2023-03-01T11:35:32;8.00;95.40
8408;DHT22;4241;48.452;9.216;2023-03-01T11:38:14;7.60;90.90
8408;DHT22;4241;48.452;9.216;2023-03-01T11:40:46;8.50;89.20
8408;DHT22;4241;48.452;9.216;2023-03-01T11:43:21;8.60;90.80
8408;DHT22;4241;48.452;9.216;2023-03-01T11:48:59;8.80;92.60
8408;DHT22;4241;48.452;9.216;2023-03-01T11:51:43;9.00;93.80
8408;DHT22;4241;48.452;9.216;2023-03-01T11:54:30;8.90;92.40
8408;DHT22;4241;48.452;9.216;2023-03-01T11:57:03;9.10;94.30
8408;DHT22;4241;48.452;9.216;2023-03-01T11:59:46;9.00;92.30
8408;DHT22;4241;48.452;9.216;2023-03-01T12:02:40;8.90;91.00
8408;DHT22;4241;48.452;9.216;2023-03-01T12:05:35;8.60;81.40
8408;DHT22;4241;48.452;9.216;2023-03-01T12:08:10;8.90;92.00
8408;DHT22;4241;48.452;9.216;2023-03-01T12:10:46;8.80;84.50
8408;DHT22;4241;48.452;9.216;2023-03-01T12:13:40;9.00;92.00
8408;DHT22;4241;48.452;9.216;2023-03-01T12:16:19;9.10;87.60
8408;DHT22;4241;48.452;9.216;2023-03-01T12:22:02;9.30;91.90
8408;DHT22;4241;48.452;9.216;2023-03-01T12:25:11;9.20;85.30
8408;DHT22;4241;48.452;9.216;2023-03-01T12:27:55;9.30;91.10
8408;DHT22;4241;48.452;9.216;2023-03-01T12:30:31;9.20;81.70
8408;DHT22;4241;48.452;9.216;2023-03-01T12:33:12;9.10;90.60
8408;DHT22;4241;48.452;9.216;2023-03-01T12:35:50;8.70;81.70
8408;DHT22;4241;48.452;9.216;2023-03-01T12:38:29;8.40;90.50
8408;DHT22;4241;48.452;9.216;2023-03-01T12:41:11;8.20;85.00
8408;DHT22;4241;48.452;9.216;2023-03-01T12:43:51;7.60;87.20
8408;DHT22;4241;48.452;9.216;2023-03-01T12:46:28;7.20;90.60
8408;DHT22;4241;48.452;9.216;2023-03-01T12:49:04;7.30;93.70
8408;DHT22;4241;48.452;9.216;2023-03-01T12:51:35;7.40;87.50
8408;DHT22;4241;48.452;9.216;2023-03-01T12:54:11;7.40;93.10
8408;DHT22;4241;48.452;9.216;2023-03-01T12:56:42;7.60;85.80
8408;DHT22;4241;48.452;9.216;2023-03-01T12:59:21;7.40;87.40
8408;DHT22;4241;48.452;9.216;2023-03-01T13:01:54;7.50;88.90
8408;DHT22;4241;48.452;9.216;2023-03-01T13:04:30;7.40;88.80
8408;DHT22;4241;48.452;9.216;2023-03-01T13:07:25;7.20;89.10
8408;DHT22;4241;48.452;9.216;2023-03-01T13:10:05;7.10;94.10
8408;DHT22;4241;48.452;9.216;2023-03-01T13:12:52;7.00;94.90
8408;DHT22;4241;48.452;9.216;2023-03-01T13:15:31;7.10;95.60
8408;DHT22;4241;48.452;9.216;2023-03-01T13:17:59;7.00;91.90
8408;DHT22;4241;48.452;9.216;2023-03-01T13:20:30;6.90;95.50
8408;DHT22;4241;48.452;9.216;2023-03-01T13:23:07;6.80;90.20
8408;DHT22;4241;48.452;9.216;2023-03-01T13:26:07;6.80;91.90
8408;DHT22;4241;48.452;9.216;2023-03-01T13:28:39;6.80;96.20
8408;DHT22;4241;48.452;9.216;2023-03-01T13:31:08;6.70;94.80
8408;DHT22;4241;48.452;9.216;2023-03-01T13:33:44;6.90;91.60
8408;DHT22;4241;48.452;9.216;2023-03-01T13:36:45;6.80;96.40
8408;DHT22;4241;48.452;9.216;2023-03-01T13:39:03;6.80;97.50
8408;DHT22;4241;48.452;9.216;2023-03-01T13:41:51;6.80;91.60
8408;DHT22;4241;48.452;9.216;2023-03-01T13:44:24;6.90;92.50
8408;DHT22;4241;48.452;9.216;2023-03-01T13:46:53;6.80;92.80
8408;DHT22;4241;48.452;9.216;2023-03-01T13:49:25;7.00;92.50
8408;DHT22;4241;48.452;9.216;2023-03-01T13:51:53;7.20;93.20
8408;DHT22;4241;48.452;9.216;2023-03-01T13:54:26;6.90;96.70
8408;DHT22;4241;48.452;9.216;2023-03-01T13:56:58;6.80;96.20
8408;DHT22;4241;48.452;9.216;2023-03-01T13:59:26;6.70;96.90
8408;DHT22;4241;48.452;9.216;2023-03-01T14:01:56;6.90;95.20
8408;DHT22;4241;48.452;9.216;2023-03-01T14:04:25;6.90;97.30
8408;DHT22;4241;48.452;9.216;2023-03-01T14:07:09;6.90;92.10
8408;DHT22;4241;48.452;9.216;2023-03-01T14:09:39;6.80;91.80
8408;DHT22;4241;48.452;9.216;2023-03-01T14:12:22;6.80;96.90
8408;DHT22;4241;48.452;9.216;2023-03-01T14:14:58;6.90;91.40
8408;DHT22;4241;48.452;9.216;2023-03-01T14:17:46;6.90;97.30
8408;DHT22;4241;48.452;9.216;2023-03-01T14:20:18;6.90;91.70
8408;DHT22;4241;48.452;9.216;2023-03-01T14:22:46;6.90;91.60
8408;DHT22;4241;48.452;9.216;2023-03-01T14:25:20;6.90;92.40
8408;DHT22;4241;48.452;9.216;2023-03-01T14:27:55;7.00;92.00
8408;DHT22;4241;48.452;9.216;2023-03-01T14:30:25;7.00;93.10
8408;DHT22;4241;48.452;9.216;2023-03-01T14:32:53;6.80;92.20
8408;DHT22;4241;48.452;9.216;2023-03-01T14:35:22;7.10;92.10
8408;DHT22;4241;48.452;9.216;2023-03-01T14:37:49;7.10;96.80
8408;DHT22;4241;48.452;9.216;2023-03-01T14:40:22;7.10;92.90
8408;DHT22;4241;48.452;9.216;2023-03-01T14:42:49;7.00;93.00
8408;DHT22;4241;48.452;9.216;2023-03-01T14:45:18;6.90;92.20
8408;DHT22;4241;48.452;9.216;2023-03-01T14:47:45;7.10;97.40
8408;DHT22;4241;48.452;9.216;2023-03-01T14:50:22;7.10;92.30
8408;DHT22;4241;48.452;9.216;2023-03-01T14:52:52;7.30;97.10
8408;DHT22;4241;48.452;9.216;2023-03-01T14:55:21;7.20;91.90
8408;DHT22;4241;48.452;9.216;2023-03-01T14:57:52;7.20;91.70
8408;DHT22;4241;48.452;9.216;2023-03-01T15:00:22;7.20;96.70
8408;DHT22;4241;48.452;9.216;2023-03-01T15:02:52;7.30;97.10
8408;DHT22;4241;48.452;9.216;2023-03-01T15:05:25;7.20;91.80
8408;DHT22;4241;48.452;9.216;2023-03-01T15:07:53;7.20;96.60
8408;DHT22;4241;48.452;9.216;2023-03-01T15:10:22;8.90;92.90
8408;DHT22;4241;48.452;9.216;2023-03-01T15:15:41;7.30;92.90
8408;DHT22;4241;48.452;9.216;2023-03-01T15:18:17;7.10;96.80
8408;DHT22;4241;48.452;9.216;2023-03-01T15:20:45;7.10;93.10
8408;DHT22;4241;48.452;9.216;2023-03-01T15:23:20;7.30;93.00
8408;DHT22;4241;48.452;9.216;2023-03-01T15:28:22;7.20;92.20
8408;DHT22;4241;48.452;9.216;2023-03-01T15:30:55;7.20;91.80
8408;DHT22;4241;48.452;9.216;2023-03-01T15:33:30;7.00;94.30
8408;DHT22;4241;48.452;9.216;2023-03-01T15:35:58;7.10;97.60
8408;DHT22;4241;48.452;9.216;2023-03-01T15:38:28;7.20;97.50
8408;DHT22;4241;48.452;9.216;2023-03-01T15:40:55;7.00;95.30
8408;DHT22;4241;48.452;9.216;2023-03-01T15:43:43;6.90;93.70
8408;DHT22;4241;48.452;9.216;2023-03-01T15:46:21;6.80;93.90
8408;DHT22;4241;48.452;9.216;2023-03-01T15:48:52;6.80;97.90
8408;DHT22;4241;48.452;9.216;2023-03-01T15:51:26;6.80;98.10
8408;DHT22;4241;48.452;9.216;2023-03-01T15:58:50;6.50;98.60
8408;DHT22;4241;48.452;9.216;2023-03-01T16:01:18;6.60;94.00
8408;DHT22;4241;48.452;9.216;2023-03-01T16:06:15;6.40;98.50
8408;DHT22;4241;48.452;9.216;2023-03-01T16:11:14;6.50;94.30
8408;DHT22;4241;48.452;9.216;2023-03-01T16:16:10;6.40;94.40
8408;DHT22;4241;48.452;9.216;2023-03-01T16:18:42;6.30;94.10
8408;DHT22;4241;48.452;9.216;2023-03-01T16:21:13;6.30;99.60
8408;DHT22;4241;48.452;9.216;2023-03-01T16:23:41;6.30;98.30
8408;DHT22;4241;48.452;9.216;2023-03-01T16:26:09;6.30;94.40
8408;DHT22;4241;48.452;9.216;2023-03-01T16:31:03;6.20;95.80
8408;DHT22;4241;48.452;9.216;2023-03-01T16:36:00;6.20;99.90
8408;DHT22;4241;48.452;9.216;2023-03-01T16:38:28;6.00;95.00
8408;DHT22;4241;48.452;9.216;2023-03-01T16:40:57;6.10;95.80
8408;DHT22;4241;48.452;9.216;2023-03-01T16:43:24;5.90;99.90
8408;DHT22;4241;48.452;9.216;2023-03-01T16:45:51;5.90;97.30
8408;DHT22;4241;48.452;9.216;2023-03-01T16:48:18;6.10;96.40
8408;DHT22;4241;48.452;9.216;2023-03-01T16:53:13;5.80;99.90
8408;DHT22;4241;48.452;9.216;2023-03-01T16:58:10;5.70;99.90
8408;DHT22;4241;48.452;9.216;2023-03-01T17:03:04;5.70;99.90
8408;DHT22;4241;48.452;9.216;2023-03-01T17:07:58;5.50;99.90
8408;DHT22;4241;48.452;9.216;2023-03-01T17:10:26;5.30;99.90
8408;DHT22;4241;48.452;9.216;2023-03-01T17:15:20;5.40;99.90
8408;DHT22;4241;48.452;9.216;2023-03-01T17:17:47;5.30;99.60
8408;DHT22;4241;48.452;9.216;2023-03-01T17:22:43;5.10;99.90
8408;DHT22;4241;48.452;9.216;2023-03-01T17:25:10;5.10;99.90
8408;DHT22;4241;48.452;9.216;2023-03-01T17:27:39;5.10;99.90
8408;DHT22;4241;48.452;9.216;2023-03-01T17:30:09;5.00;99.90
8408;DHT22;4241;48.452;9.216;2023-03-01T17:35:03;5.00;99.90
8408;DHT22;4241;48.452;9.216;2023-03-01T17:44:53;4.90;99.90
8408;DHT22;4241;48.452;9.216;2023-03-01T17:52:14;4.90;99.90
8408;DHT22;4241;48.452;9.216;2023-03-01T17:57:11;4.80;99.90
8408;DHT22;4241;48.452;9.216;2023-03-01T17:59:38;4.90;99.90
8408;DHT22;4241;48.452;9.216;2023-03-01T18:02:06;4.80;99.90
8408;DHT22;4241;48.452;9.216;2023-03-01T18:04:33;4.90;99.90
8408;DHT22;4241;48.452;9.216;2023-03-01T18:07:00;4.90;99.90
8408;DHT22;4241;48.452;9.216;2023-03-01T18:09:27;4.80;99.90
8408;DHT22;4241;48.452;9.216;2023-03-01T18:11:55;4.90;99.90
8408;DHT22;4241;48.452;9.216;2023-03-01T18:19:18;4.80;99.90
8408;DHT22;4241;48.452;9.216;2023-03-01T18:21:45;4.80;99.90
8408;DHT22;4241;48.452;9.216;2023-03-01T18:36:32;4.60;99.90
8408;DHT22;4241;48.452;9.216;2023-03-01T18:39:01;4.60;99.90
8408;DHT22;4241;48.452;9.216;2023-03-01T18:41:28;4.60;99.90
8408;DHT22;4241;48.452;9.216;2023-03-01T18:43:55;4.60;99.90
8408;DHT22;4241;48.452;9.216;2023-03-01T18:46:23;4.40;99.90
8408;DHT22;4241;48.452;9.216;2023-03-01T18:48:51;4.40;99.90
8408;DHT22;4241;48.452;9.216;2023-03-01T18:51:20;4.40;99.90
8408;DHT22;4241;48.452;9.216;2023-03-01T18:53:49;4.40;99.90
8408;DHT22;4241;48.452;9.216;2023-03-01T19:01:13;4.30;99.90
8408;DHT22;4241;48.452;9.216;2023-03-01T19:08:34;4.30;99.90
8408;DHT22;4241;48.452;9.216;2023-03-01T19:11:04;4.30;99.90
8408;DHT22;4241;48.452;9.216;2023-03-01T19:13:33;4.30;99.90
8408;DHT22;4241;48.452;9.216;2023-03-01T19:16:03;4.20;99.90
8408;DHT22;4241;48.452;9.216;2023-03-01T19:20:58;4.20;99.90
8408;DHT22;4241;48.452;9.216;2023-03-01T19:23:25;4.20;99.90
8408;DHT22;4241;48.452;9.216;2023-03-01T19:25:57;4.10;99.90
8408;DHT22;4241;48.452;9.216;2023-03-01T19:28:26;4.00;99.90
8408;DHT22;4241;48.452;9.216;2023-03-01T19:30:57;4.10;99.90
8408;DHT22;4241;48.452;9.216;2023-03-01T19:33:24;4.10;99.90
8408;DHT22;4241;48.452;9.216;2023-03-01T19:38:18;4.10;99.90
8408;DHT22;4241;48.452;9.216;2023-03-01T19:43:12;4.00;99.90
8408;DHT22;4241;48.452;9.216;2023-03-01T19:45:40;3.90;99.90
8408;DHT22;4241;48.452;9.216;2023-03-01T19:48:07;4.00;99.90
8408;DHT22;4241;48.452;9.216;2023-03-01T19:50:34;4.00;99.90
8408;DHT22;4241;48.452;9.216;2023-03-01T19:53:02;3.90;99.90
8408;DHT22;4241;48.452;9.216;2023-03-01T19:57:56;3.90;99.90
8408;DHT22;4241;48.452;9.216;2023-03-01T20:02:52;3.90;99.90
8408;DHT22;4241;48.452;9.216;2023-03-01T20:15:08;3.60;99.90
8408;DHT22;4241;48.452;9.216;2023-03-01T20:20:04;3.60;99.90
8408;DHT22;4241;48.452;9.216;2023-03-01T20:24:58;3.70;99.90
8408;DHT22;4241;48.452;9.216;2023-03-01T20:29:52;3.20;99.90
8408;DHT22;4241;48.452;9.216;2023-03-01T20:32:19;3.00;99.90
8408;DHT22;4241;48.452;9.216;2023-03-01T20:37:15;3.00;99.90
8408;DHT22;4241;48.452;9.216;2023-03-01T20:39:41;3.00;99.90
8408;DHT22;4241;48.452;9.216;2023-03-01T20:42:08;3.00;99.90